»·PEaware :: DAL1505 KSEA-KSLC

DAL1505 :: KSEA-KSLC

FLIGHT INFORMATION

Flight Status: Arrived
Operator:
Delta Air Lines
More flights by this operator :: More flights under this callsign
Pilot: Lucas B. (17570)
Aircraft: AIRBUS A319
(A319)
More flights by this aircraft type
Origin: KSEA Seattle-Tacoma Intl
United States
Destination: KSLC Salt Lake City Intl
United States
More flights between these airports :: More routes between these airports
Route: +SUMMA2 SUMMA WANTA Q154 BYI SKEES5
File this flight plan on PilotEdge
Remarks: RMK / SIMBRIEF
Altitude:
(Current/Filed)
37,000ft
Speed:
(Current/Filed)
442kts
Departed: 25-Oct-20 01:57 PM
Arrived: 25-Oct-20 03:38 PM
Distance/Time
Traveled:
597nm/1:41
Distance/Time
To Go:
Arrived

Flight Plot

Page will automatically refresh every two minutes.

Flight plan parsing failed; only flown route is shown


Map Options




Map Legend


Flown Route
Filed Route
Departure Airport
Arrival Airport
Navaid (VOR, NDB)
Fix

Horizontal Profiles

Position Reports

Time Latitude Longitude Heading Altitude Ground
Speed
25-Oct-20 13:28 47.440671 -122.303320 338 441ft 0kts
25-Oct-20 13:29 47.440671 -122.303320 338 441ft 0kts
25-Oct-20 13:30 47.440671 -122.303320 338 441ft 0kts
25-Oct-20 13:31 47.440671 -122.303320 338 441ft 0kts
25-Oct-20 13:32 47.440671 -122.303320 338 441ft 0kts
25-Oct-20 13:33 47.440671 -122.303320 338 441ft 0kts
25-Oct-20 13:34 47.440671 -122.303320 338 441ft 0kts
25-Oct-20 13:35 47.440671 -122.303320 338 441ft 0kts
25-Oct-20 13:36 47.440671 -122.303320 338 441ft 0kts
25-Oct-20 13:37 47.440671 -122.303320 338 441ft 0kts
25-Oct-20 13:38 47.440671 -122.303320 338 441ft 0kts
25-Oct-20 13:39 47.440671 -122.303320 338 441ft 0kts
25-Oct-20 13:40 47.440671 -122.303320 338 441ft 0kts
25-Oct-20 13:41 47.440671 -122.303320 338 441ft 0kts
25-Oct-20 13:42 47.440671 -122.303320 338 441ft 0kts
25-Oct-20 13:43 47.440671 -122.303320 338 441ft 0kts
25-Oct-20 13:44 47.440671 -122.303320 338 441ft 0kts
25-Oct-20 13:45 47.440671 -122.303320 338 441ft 0kts
25-Oct-20 13:46 47.440247 -122.303057 316 441ft 2kts
25-Oct-20 13:47 47.440225 -122.302482 236 441ft 0kts
25-Oct-20 13:48 47.440225 -122.302483 236 441ft 0kts
25-Oct-20 13:49 47.440225 -122.302483 236 441ft 0kts
25-Oct-20 13:50 47.440225 -122.302483 236 441ft 0kts
25-Oct-20 13:51 47.440149 -122.302651 236 441ft 4kts
25-Oct-20 13:52 47.439348 -122.306391 177 441ft 11kts
25-Oct-20 13:53 47.435711 -122.305674 159 441ft 13kts
25-Oct-20 13:54 47.431821 -122.306357 240 441ft 7kts
25-Oct-20 13:55 47.431770 -122.306540 254 441ft 0kts
25-Oct-20 13:56 47.433086 -122.308024 1 441ft 43kts
25-Oct-20 13:57 47.470366 -122.307925 2 1965ft 160kts
25-Oct-20 13:58 47.521518 -122.308407 1 4168ft 220kts
25-Oct-20 13:59 47.589480 -122.300909 32 7091ft 263kts
25-Oct-20 14:00 47.591497 -122.206448 140 10394ft 291kts
25-Oct-20 14:01 47.504263 -122.179637 170 12669ft 342kts
25-Oct-20 14:02 47.408335 -122.159182 169 14949ft 354kts
25-Oct-20 14:03 47.310447 -122.137727 168 15889ft 363kts
25-Oct-20 14:04 47.209601 -122.115742 168 18450ft 375kts
25-Oct-20 14:05 47.104578 -122.092933 167 20683ft 390kts
25-Oct-20 14:06 46.995003 -122.069092 167 22603ft 409kts
25-Oct-20 14:07 46.880797 -122.044432 168 24431ft 424kts
25-Oct-20 14:08 46.761836 -122.018958 168 26020ft 440kts
25-Oct-20 14:09 46.639061 -121.990722 156 27383ft 452kts
25-Oct-20 14:10 46.566420 -121.864893 105 28748ft 412kts
25-Oct-20 14:11 46.510066 -121.715640 108 30027ft 429kts
25-Oct-20 14:12 46.448619 -121.564630 110 31166ft 443kts
25-Oct-20 14:13 46.382555 -121.411458 110 32260ft 454kts
25-Oct-20 14:14 46.314926 -121.254368 111 33207ft 467kts
25-Oct-20 14:15 46.245254 -121.093706 110 34135ft 477kts
25-Oct-20 14:16 46.174097 -120.930462 108 35111ft 484kts
25-Oct-20 14:17 46.101770 -120.764850 108 36011ft 491kts
25-Oct-20 14:18 46.028651 -120.599153 108 37112ft 490kts
25-Oct-20 14:19 45.956091 -120.435592 108 37557ft 491kts
25-Oct-20 14:20 45.882406 -120.270514 109 37552ft 493kts
25-Oct-20 14:21 45.807868 -120.105465 109 37560ft 492kts
25-Oct-20 14:22 45.733679 -119.941220 109 37573ft 493kts
25-Oct-20 14:23 45.659032 -119.776897 109 37580ft 493kts
25-Oct-20 14:24 45.584036 -119.612723 109 37581ft 494kts
25-Oct-20 14:25 45.509003 -119.449432 109 37580ft 494kts
25-Oct-20 14:26 45.433649 -119.286217 110 37581ft 495kts
25-Oct-20 14:27 45.357950 -119.123205 110 37572ft 495kts
25-Oct-20 14:28 45.281662 -118.959995 110 37545ft 496kts
25-Oct-20 14:29 45.205447 -118.797929 110 37509ft 496kts
25-Oct-20 14:30 45.128786 -118.635815 110 37398ft 497kts
25-Oct-20 14:31 45.051803 -118.473807 112 37324ft 495kts
25-Oct-20 14:32 44.973274 -118.313710 118 37345ft 495kts
25-Oct-20 14:33 44.890241 -118.159426 119 37360ft 494kts
25-Oct-20 14:35 44.806898 -118.006332 119 37350ft 494kts
25-Oct-20 14:36 44.723313 -117.852624 119 37343ft 494kts
25-Oct-20 14:37 44.639728 -117.699609 119 37341ft 494kts
25-Oct-20 14:38 44.556188 -117.547486 119 37341ft 494kts
25-Oct-20 14:39 44.472086 -117.395146 119 37342ft 495kts
25-Oct-20 14:40 44.387812 -117.243040 119 37327ft 496kts
25-Oct-20 14:41 44.308121 -117.087011 115 37301ft 491kts
25-Oct-20 14:42 44.231920 -116.930411 117 37291ft 486kts
25-Oct-20 14:43 44.155976 -116.775948 118 37288ft 484kts
25-Oct-20 14:44 44.079927 -116.622117 118 37282ft 483kts
25-Oct-20 14:45 44.003509 -116.468218 118 37271ft 483kts
25-Oct-20 14:46 43.927190 -116.315262 119 37258ft 483kts
25-Oct-20 14:47 43.850470 -116.162790 119 37232ft 484kts
25-Oct-20 14:48 43.773112 -116.009800 119 37213ft 484kts
25-Oct-20 14:49 43.695975 -115.857643 119 37207ft 484kts
25-Oct-20 14:50 43.617943 -115.706180 121 37206ft 486kts
25-Oct-20 14:51 43.536308 -115.558075 121 37217ft 485kts
25-Oct-20 14:52 43.454868 -115.410242 121 37228ft 486kts
25-Oct-20 14:53 43.373112 -115.262115 121 37226ft 485kts
25-Oct-20 14:53 43.305312 -115.139753 122 37214ft 484kts
25-Oct-20 14:54 43.223701 -114.993298 124 37207ft 482kts
25-Oct-20 14:55 43.142426 -114.848698 125 37203ft 479kts
25-Oct-20 14:56 43.060943 -114.704404 125 37202ft 480kts
25-Oct-20 14:57 42.979146 -114.559888 125 37205ft 481kts
25-Oct-20 14:58 42.896995 -114.415494 126 37205ft 482kts
25-Oct-20 14:59 42.814417 -114.271764 127 37206ft 481kts
25-Oct-20 15:00 42.732123 -114.128429 127 37202ft 482kts
25-Oct-20 15:01 42.649689 -113.985603 127 37189ft 482kts
25-Oct-20 15:02 42.564776 -113.845113 133 37180ft 482kts
25-Oct-20 15:03 42.470139 -113.718110 135 36258ft 473kts
25-Oct-20 15:04 42.376671 -113.593380 135 35197ft 473kts
25-Oct-20 15:05 42.282437 -113.468073 134 32913ft 472kts
25-Oct-20 15:06 42.190485 -113.346298 135 30960ft 458kts
25-Oct-20 15:07 42.101316 -113.228788 135 29622ft 444kts
25-Oct-20 15:08 42.013741 -113.113792 134 28282ft 435kts
25-Oct-20 15:09 41.928549 -113.002373 134 26570ft 424kts
25-Oct-20 15:10 41.844199 -112.892783 135 24739ft 417kts
25-Oct-20 15:11 41.761829 -112.786023 135 22929ft 409kts
25-Oct-20 15:12 41.680943 -112.681520 134 21044ft 400kts
25-Oct-20 15:13 41.601833 -112.579670 133 19146ft 391kts
25-Oct-20 15:14 41.523742 -112.482686 139 17242ft 382kts
25-Oct-20 15:15 41.437272 -112.411213 149 17061ft 359kts
25-Oct-20 15:16 41.349081 -112.349046 150 16013ft 365kts
25-Oct-20 15:17 41.263306 -112.288224 149 13617ft 342kts
25-Oct-20 15:18 41.182373 -112.228248 147 12970ft 326kts
25-Oct-20 15:19 41.103475 -112.167934 147 12993ft 328kts
25-Oct-20 15:20 41.014917 -112.132988 172 12878ft 334kts
25-Oct-20 15:21 40.923893 -112.114051 172 11336ft 326kts
25-Oct-20 15:22 40.839176 -112.101897 176 10787ft 282kts
25-Oct-20 15:23 40.767012 -112.093498 176 9851ft 248kts
25-Oct-20 15:24 40.701791 -112.085747 176 8958ft 246kts
25-Oct-20 15:25 40.639416 -112.078100 176 8941ft 247kts
25-Oct-20 15:26 40.569841 -112.069299 176 8940ft 247kts
25-Oct-20 15:27 40.503097 -112.060883 176 8648ft 244kts
25-Oct-20 15:28 40.464752 -112.004680 72 7453ft 234kts
25-Oct-20 15:29 40.510766 -111.962985 21 6979ft 219kts
25-Oct-20 15:30 40.560822 -111.963389 335 6982ft 186kts
25-Oct-20 15:31 40.606830 -111.975555 351 6928ft 131kts
25-Oct-20 15:32 40.643873 -111.980340 352 6825ft 133kts
25-Oct-20 15:33 40.680684 -111.984664 353 6160ft 132kts
25-Oct-20 15:34 40.717395 -111.988799 354 5454ft 131kts
25-Oct-20 15:35 40.753811 -111.993002 355 4694ft 130kts
25-Oct-20 15:36 40.786371 -111.996791 354 4236ft 46kts
25-Oct-20 15:37 40.791040 -111.995841 104 4235ft 7kts
25-Oct-20 15:38 40.790969 -111.995459 98 4235ft 0kts
25-Oct-20 15:39 40.791035 -111.993215 84 4235ft 13kts

Navigation Log

Ident Type
Flight plan parsing failed, navigation log unavailable